Time,TemperatureF,DewpointF,PressureIn,WindDirection,WindDirectionDegrees,WindSpeedMPH,WindSpeedGustMPH,Humidity,HourlyPrecipIn,Conditions,Clouds,dailyrainin,SoftwareType,DateUTC
2013-02-22 00:00:00,40.6,38.2,30.24,SW,225,0.0,0.0,91,0.00,,,0.00,LWC V2.11 B50,2013-02-22 08:00:00,
2013-02-22 00:10:00,40.0,37.6,30.24,SSW,202,0.0,3.0,91,0.00,,,0.00,LWC V2.11 B50,2013-02-22 08:10:00,
2013-02-22 00:20:00,40.0,37.6,30.24,SSW,202,0.0,3.0,91,0.00,,,0.00,LWC V2.11 B50,2013-02-22 08:20:00,
2013-02-22 00:30:00,40.0,37.6,30.24,SSW,202,0.0,3.0,91,0.00,,,0.00,LWC V2.11 B50,2013-02-22 08:30:00,
2013-02-22 00:40:00,39.8,37.4,30.24,West,270,0.0,1.0,91,0.00,,,0.00,LWC V2.11 B50,2013-02-22 08:40:00,
2013-02-22 00:50:00,39.8,37.4,30.24,West,270,0.0,1.0,91,0.00,,,0.00,LWC V2.11 B50,2013-02-22 08:50:00,
2013-02-22 01:00:00,39.8,37.4,30.24,West,270,0.0,1.0,91,0.00,,,0.00,LWC V2.11 B50,2013-02-22 09:00:00,
2013-02-22 01:10:00,39.2,37.1,30.24,West,270,0.0,0.0,92,0.00,,,0.00,LWC V2.11 B50,2013-02-22 09:10:00,
2013-02-22 01:20:00,39.2,37.1,30.24,West,270,0.0,0.0,92,0.00,,,0.00,LWC V2.11 B50,2013-02-22 09:20:00,
2013-02-22 01:30:00,39.2,37.1,30.24,West,270,0.0,0.0,92,0.00,,,0.00,LWC V2.11 B50,2013-02-22 09:30:00,
2013-02-22 01:40:00,38.9,36.8,30.24,West,270,0.0,0.0,92,0.00,,,0.00,LWC V2.11 B50,2013-02-22 09:40:00,
2013-02-22 01:50:00,38.9,36.8,30.24,West,270,0.0,0.0,92,0.00,,,0.00,LWC V2.11 B50,2013-02-22 09:50:00,
2013-02-22 02:00:00,38.9,36.8,30.24,West,270,0.0,0.0,92,0.00,,,0.00,LWC V2.11 B50,2013-02-22 10:00:00,
2013-02-22 02:10:00,38.4,36.3,30.24,West,270,0.0,0.0,92,0.00,,,0.00,LWC V2.11 B50,2013-02-22 10:10:00,
2013-02-22 02:20:00,38.4,36.3,30.24,West,270,0.0,0.0,92,0.00,,,0.00,LWC V2.11 B50,2013-02-22 10:20:00,
2013-02-22 02:30:00,38.4,36.3,30.24,West,270,0.0,0.0,92,0.00,,,0.00,LWC V2.11 B50,2013-02-22 10:30:00,
2013-02-22 02:40:00,38.2,36.1,30.24,West,270,0.0,0.0,92,0.00,,,0.00,LWC V2.11 B50,2013-02-22 10:40:00,
2013-02-22 02:50:00,38.2,36.1,30.24,West,270,0.0,0.0,92,0.00,,,0.00,LWC V2.11 B50,2013-02-22 10:50:00,
2013-02-22 03:00:00,38.2,36.1,30.24,West,270,0.0,0.0,92,0.00,,,0.00,LWC V2.11 B50,2013-02-22 11:00:00,
2013-02-22 03:10:00,37.9,36.1,30.24,West,270,0.0,0.0,93,0.00,,,0.00,LWC V2.11 B50,2013-02-22 11:10:00,
2013-02-22 03:20:00,37.9,36.1,30.24,West,270,0.0,0.0,93,0.00,,,0.00,LWC V2.11 B50,2013-02-22 11:20:00,
2013-02-22 03:30:00,37.9,36.1,30.24,West,270,0.0,0.0,93,0.00,,,0.00,LWC V2.11 B50,2013-02-22 11:30:00,
2013-02-22 03:40:00,37.4,35.3,30.24,West,270,0.0,0.0,92,0.00,,,0.00,LWC V2.11 B50,2013-02-22 11:40:00,
2013-02-22 03:50:00,37.4,35.3,30.24,West,270,0.0,0.0,92,0.00,,,0.00,LWC V2.11 B50,2013-02-22 11:50:00,
2013-02-22 04:00:00,36.4,34.3,30.24,West,270,0.0,0.0,92,0.00,,,0.00,LWC V2.11 B50,2013-02-22 12:00:00,
2013-02-22 04:10:00,36.4,34.3,30.24,West,270,0.0,0.0,92,0.00,,,0.00,LWC V2.11 B50,2013-02-22 12:10:00,
2013-02-22 04:20:00,36.4,34.3,30.24,West,270,0.0,0.0,92,0.00,,,0.00,LWC V2.11 B50,2013-02-22 12:20:00,
2013-02-22 04:30:00,35.4,33.3,30.24,West,270,0.0,0.0,92,0.00,,,0.00,LWC V2.11 B50,2013-02-22 12:30:00,
2013-02-22 04:40:00,35.4,33.3,30.24,West,270,0.0,0.0,92,0.00,,,0.00,LWC V2.11 B50,2013-02-22 12:40:00,
2013-02-22 04:50:00,35.4,33.3,30.24,West,270,0.0,0.0,92,0.00,,,0.00,LWC V2.11 B50,2013-02-22 12:50:00,
2013-02-22 05:00:00,34.7,32.6,30.25,West,270,0.0,0.0,92,0.00,,,0.00,LWC V2.11 B50,2013-02-22 13:00:00,
2013-02-22 05:10:00,34.7,32.6,30.25,West,270,0.0,0.0,92,0.00,,,0.00,LWC V2.11 B50,2013-02-22 13:10:00,
2013-02-22 05:20:00,34.7,32.6,30.25,West,270,0.0,0.0,92,0.00,,,0.00,LWC V2.11 B50,2013-02-22 13:20:00,
2013-02-22 05:30:00,34.4,32.6,30.25,West,270,0.0,0.0,93,0.00,,,0.00,LWC V2.11 B50,2013-02-22 13:30:00,
2013-02-22 05:40:00,34.4,32.6,30.25,West,270,0.0,0.0,93,0.00,,,0.00,LWC V2.11 B50,2013-02-22 13:40:00,
2013-02-22 05:50:00,34.4,32.6,30.25,West,270,0.0,0.0,93,0.00,,,0.00,LWC V2.11 B50,2013-02-22 13:50:00,
2013-02-22 06:00:00,34.4,32.6,30.25,West,270,0.0,0.0,93,0.00,,,0.00,LWC V2.11 B50,2013-02-22 14:00:00,
2013-02-22 06:10:00,34.0,32.2,30.25,West,270,0.0,0.0,93,0.00,,,0.00,LWC V2.11 B50,2013-02-22 14:10:00,
2013-02-22 06:20:00,34.0,32.2,30.25,West,270,0.0,0.0,93,0.00,,,0.00,LWC V2.11 B50,2013-02-22 14:20:00,
2013-02-22 06:30:00,34.0,32.2,30.25,West,270,0.0,0.0,93,0.00,,,0.00,LWC V2.11 B50,2013-02-22 14:30:00,
2013-02-22 06:40:00,33.7,31.9,30.25,West,270,0.0,0.0,93,0.00,,,0.00,LWC V2.11 B50,2013-02-22 14:40:00,
2013-02-22 06:50:00,33.7,31.9,30.25,West,270,0.0,0.0,93,0.00,,,0.00,LWC V2.11 B50,2013-02-22 14:50:00,
2013-02-22 07:00:00,33.7,31.9,30.25,West,270,0.0,0.0,93,0.00,,,0.00,LWC V2.11 B50,2013-02-22 15:00:00,
2013-02-22 07:10:00,33.3,31.5,30.26,West,270,0.0,0.0,93,0.00,,,0.00,LWC V2.11 B50,2013-02-22 15:10:00,
2013-02-22 07:20:00,33.3,31.5,30.26,West,270,0.0,0.0,93,0.00,,,0.00,LWC V2.11 B50,2013-02-22 15:20:00,
2013-02-22 07:30:00,33.5,31.7,30.26,West,270,0.0,0.0,93,0.00,,,0.00,LWC V2.11 B50,2013-02-22 15:30:00,
2013-02-22 07:40:00,33.5,31.7,30.26,West,270,0.0,0.0,93,0.00,,,0.00,LWC V2.11 B50,2013-02-22 15:40:00,
2013-02-22 07:50:00,33.5,31.7,30.26,West,270,0.0,0.0,93,0.00,,,0.00,LWC V2.11 B50,2013-02-22 15:50:00,
2013-02-22 08:00:00,34.4,32.9,30.27,West,270,0.0,0.0,94,0.00,,,0.00,LWC V2.11 B50,2013-02-22 16:00:00,
2013-02-22 08:10:00,35.0,33.5,30.27,West,281,0.0,0.0,94,0.00,,,0.00,LWC V2.11 B50,2013-02-22 16:10:00,
2013-02-22 08:20:00,35.8,34.2,30.27,West,281,0.0,0.0,94,0.00,,,0.00,LWC V2.11 B50,2013-02-22 16:20:00,
2013-02-22 08:35:00,37.2,35.6,30.27,West,281,0.0,0.0,94,0.00,,,0.00,LWC V2.11 B50,2013-02-22 16:35:00,
2013-02-22 08:50:00,40.7,39.1,30.27,West,281,0.0,0.0,94,0.00,,,0.00,LWC V2.11 B50,2013-02-22 16:50:00,
2013-02-22 09:05:00,41.5,38.5,30.27,West,281,0.0,0.0,89,0.00,,,0.00,LWC V2.11 B50,2013-02-22 17:05:00,
2013-02-22 09:20:00,41.8,37.6,30.27,East,83,0.0,0.0,85,0.00,,,0.00,LWC V2.11 B50,2013-02-22 17:20:00,
2013-02-22 09:35:00,43.5,39.3,30.28,East,83,0.0,0.0,85,0.00,,,0.00,LWC V2.11 B50,2013-02-22 17:35:00,
2013-02-22 09:50:00,46.1,40.3,30.28,East,83,0.0,0.0,80,0.00,,,0.00,LWC V2.11 B50,2013-02-22 17:50:00,
2013-02-22 10:05:00,47.3,39.8,30.28,East,83,0.0,0.0,75,0.00,,,0.00,LWC V2.11 B50,2013-02-22 18:05:00,
2013-02-22 10:20:00,47.1,39.6,30.29,East,83,0.0,0.0,75,0.00,,,0.00,LWC V2.11 B50,2013-02-22 18:20:00,
2013-02-22 10:35:00,47.6,40.1,30.29,SSE,165,0.0,0.0,75,0.00,,,0.00,LWC V2.11 B50,2013-02-22 18:35:00,
2013-02-22 10:50:00,48.8,39.5,30.29,SSW,212,0.0,7.0,70,0.00,,,0.00,LWC V2.11 B50,2013-02-22 18:50:00,
2013-02-22 11:05:00,49.9,40.1,30.29,SW,227,1.0,4.0,69,0.00,,,0.00,LWC V2.11 B50,2013-02-22 19:05:00,
2013-02-22 11:20:00,50.8,39.9,30.29,SW,227,2.0,2.0,66,0.00,,,0.00,LWC V2.11 B50,2013-02-22 19:20:00,
2013-02-22 11:35:00,51.1,40.5,30.29,NNW,338,1.0,3.0,67,0.00,,,0.00,LWC V2.11 B50,2013-02-22 19:35:00,
2013-02-22 11:50:00,51.1,40.1,30.30,SW,222,3.0,8.0,66,0.00,,,0.00,LWC V2.11 B50,2013-02-22 19:50:00,
2013-02-22 12:05:00,51.1,40.1,30.30,SSW,209,0.0,5.0,66,0.00,,,0.00,LWC V2.11 B50,2013-02-22 20:05:00,
2013-02-22 12:20:00,51.0,40.0,30.30,SSE,167,0.0,0.0,66,0.00,,,0.00,LWC V2.11 B50,2013-02-22 20:20:00,
2013-02-22 12:35:00,51.3,40.3,30.29,South,181,0.0,4.0,66,0.00,,,0.00,LWC V2.11 B50,2013-02-22 20:35:00,
2013-02-22 12:50:00,53.2,42.1,30.28,NNW,329,0.0,0.0,66,0.00,,,0.00,LWC V2.11 B50,2013-02-22 20:50:00,
2013-02-22 13:05:00,52.6,42.0,30.27,West,261,0.0,2.0,67,0.00,,,0.00,LWC V2.11 B50,2013-02-22 21:05:00,
2013-02-22 13:20:00,52.6,42.3,30.27,SW,231,5.0,8.0,68,0.00,,,0.00,LWC V2.11 B50,2013-02-22 21:20:00,
2013-02-22 13:35:00,53.6,43.3,30.27,SSW,198,0.0,6.0,68,0.00,,,0.00,LWC V2.11 B50,2013-02-22 21:35:00,
2013-02-22 13:50:00,52.8,43.7,30.27,WNW,290,1.0,2.0,71,0.00,,,0.00,LWC V2.11 B50,2013-02-22 21:50:00,
2013-02-22 14:05:00,53.9,44.7,30.27,NW,314,0.0,0.0,71,0.00,,,0.00,LWC V2.11 B50,2013-02-22 22:05:00,
2013-02-22 14:21:00,52.0,42.9,30.27,ENE,74,0.0,5.0,71,0.00,,,0.00,LWC V2.11 B50,2013-02-22 22:21:00,
2013-02-22 14:35:00,53.0,43.5,30.26,South,188,0.0,0.0,70,0.00,,,0.00,LWC V2.11 B50,2013-02-22 22:35:00,
2013-02-22 14:50:00,51.4,42.7,30.27,NNE,15,1.0,5.0,72,0.00,,,0.00,LWC V2.11 B50,2013-02-22 22:50:00,
2013-02-22 15:05:00,50.4,42.4,30.27,WSW,254,0.0,4.0,74,0.00,,,0.00,LWC V2.11 B50,2013-02-22 23:05:00,
2013-02-22 15:20:00,50.5,43.6,30.26,South,187,0.0,0.0,77,0.00,,,0.00,LWC V2.11 B50,2013-02-22 23:20:00,
2013-02-22 15:35:00,52.4,43.6,30.25,WSW,248,0.0,1.0,72,0.00,,,0.00,LWC V2.11 B50,2013-02-22 23:35:00,
2013-02-22 15:50:00,51.0,42.3,30.26,SW,233,1.0,3.0,72,0.00,,,0.00,LWC V2.11 B50,2013-02-22 23:50:00,
2013-02-22 16:05:00,49.9,41.9,30.25,NE,34,1.0,6.0,74,0.00,,,0.00,LWC V2.11 B50,2013-02-23 00:05:00,
2013-02-22 16:20:00,49.0,42.1,30.26,SSW,193,1.0,2.0,77,0.00,,,0.00,LWC V2.11 B50,2013-02-23 00:20:00,
2013-02-22 16:35:00,48.5,42.0,30.25,West,272,0.0,1.0,78,0.00,,,0.00,LWC V2.11 B50,2013-02-23 00:35:00,
2013-02-22 16:50:00,48.4,42.2,30.25,West,259,0.0,3.0,79,0.00,,,0.00,LWC V2.11 B50,2013-02-23 00:50:00,
2013-02-22 17:05:00,48.2,42.0,30.26,SSE,161,2.0,4.0,79,0.00,,,0.00,LWC V2.11 B50,2013-02-23 01:05:00,
2013-02-22 17:20:00,47.7,42.2,30.26,SW,224,0.0,0.0,81,0.00,,,0.00,LWC V2.11 B50,2013-02-23 01:20:00,
2013-02-22 17:30:00,47.5,42.0,30.26,West,259,0.0,3.0,81,0.00,,,0.00,LWC V2.11 B50,2013-02-23 01:30:00,
2013-02-22 17:40:00,47.5,42.0,30.26,West,259,0.0,3.0,81,0.00,,,0.00,LWC V2.11 B50,2013-02-23 01:40:00,
2013-02-22 17:50:00,47.5,42.0,30.26,West,259,0.0,3.0,81,0.00,,,0.00,LWC V2.11 B50,2013-02-23 01:50:00,
2013-02-22 18:00:00,47.5,42.0,30.26,West,259,0.0,3.0,81,0.00,,,0.00,LWC V2.11 B50,2013-02-23 02:00:00,
2013-02-22 18:10:00,47.5,42.0,30.26,West,259,0.0,3.0,81,0.00,,,0.00,LWC V2.11 B50,2013-02-23 02:10:00,
2013-02-22 18:20:00,47.5,42.0,30.26,West,259,0.0,3.0,81,0.00,,,0.00,LWC V2.11 B50,2013-02-23 02:20:00,
2013-02-22 18:30:00,47.5,42.0,30.26,West,259,0.0,3.0,81,0.00,,,0.00,LWC V2.11 B50,2013-02-23 02:30:00,
2013-02-22 18:40:00,47.5,42.0,30.26,West,259,0.0,3.0,81,0.00,,,0.00,LWC V2.11 B50,2013-02-23 02:40:00,
2013-02-22 18:50:00,47.5,42.0,30.26,West,259,0.0,3.0,81,0.00,,,0.00,LWC V2.11 B50,2013-02-23 02:50:00,
2013-02-22 19:00:00,47.5,42.0,30.26,West,259,0.0,3.0,81,0.00,,,0.00,LWC V2.11 B50,2013-02-23 03:00:00,
2013-02-22 19:10:00,47.5,42.0,30.26,West,259,0.0,3.0,81,0.00,,,0.00,LWC V2.11 B50,2013-02-23 03:10:00,
2013-02-22 19:20:00,47.5,42.0,30.26,West,259,0.0,3.0,81,0.00,,,0.00,LWC V2.11 B50,2013-02-23 03:20:00,
2013-02-22 19:30:00,47.5,42.0,30.26,West,259,0.0,3.0,81,0.00,,,0.00,LWC V2.11 B50,2013-02-23 03:30:00,
2013-02-22 19:40:00,47.5,42.0,30.26,West,259,0.0,3.0,81,0.00,,,0.00,LWC V2.11 B50,2013-02-23 03:40:00,
2013-02-22 19:50:00,47.5,42.0,30.26,West,259,0.0,3.0,81,0.00,,,0.00,LWC V2.11 B50,2013-02-23 03:50:00,
2013-02-22 20:00:00,47.5,42.0,30.26,West,259,0.0,3.0,81,0.00,,,0.00,LWC V2.11 B50,2013-02-23 04:00:00,
2013-02-22 20:10:00,47.5,42.0,30.26,West,259,0.0,3.0,81,0.00,,,0.00,LWC V2.11 B50,2013-02-23 04:10:00,
2013-02-22 20:20:00,47.5,42.0,30.26,West,259,0.0,3.0,81,0.00,,,0.00,LWC V2.11 B50,2013-02-23 04:20:00,
2013-02-22 20:30:00,47.5,42.0,30.26,West,259,0.0,3.0,81,0.00,,,0.00,LWC V2.11 B50,2013-02-23 04:30:00,
2013-02-22 20:40:00,47.5,42.0,30.26,West,259,0.0,3.0,81,0.00,,,0.00,LWC V2.11 B50,2013-02-23 04:40:00,
2013-02-22 20:50:00,47.5,42.0,30.26,West,259,0.0,3.0,81,0.00,,,0.00,LWC V2.11 B50,2013-02-23 04:50:00,
2013-02-22 21:00:00,47.5,42.0,30.26,West,259,0.0,3.0,81,0.00,,,0.00,LWC V2.11 B50,2013-02-23 05:00:00,
2013-02-22 21:10:00,47.5,42.0,30.26,West,259,0.0,3.0,81,0.00,,,0.00,LWC V2.11 B50,2013-02-23 05:10:00,
2013-02-22 21:20:00,47.5,42.0,30.26,West,259,0.0,3.0,81,0.00,,,0.00,LWC V2.11 B50,2013-02-23 05:20:00,
2013-02-22 21:30:00,44.9,42.4,30.26,SW,225,0.0,0.0,91,0.00,,,0.00,LWC V2.11 B50,2013-02-23 05:30:00,
2013-02-22 21:40:00,44.9,42.4,30.26,SW,225,0.0,0.0,91,0.00,,,0.00,LWC V2.11 B50,2013-02-23 05:40:00,
2013-02-22 21:50:00,44.9,42.4,30.26,SW,225,0.0,0.0,91,0.00,,,0.00,LWC V2.11 B50,2013-02-23 05:50:00,
2013-02-22 22:00:00,44.5,42.3,30.26,SW,225,0.0,0.0,92,0.00,,,0.00,LWC V2.11 B50,2013-02-23 06:00:00,
2013-02-22 22:10:00,44.5,42.3,30.26,SW,225,0.0,0.0,92,0.00,,,0.00,LWC V2.11 B50,2013-02-23 06:10:00,
2013-02-22 22:20:00,44.5,42.3,30.26,SW,225,0.0,0.0,92,0.00,,,0.00,LWC V2.11 B50,2013-02-23 06:20:00,
2013-02-22 22:30:00,44.5,42.3,30.26,SW,225,0.0,0.0,92,0.00,,,0.00,LWC V2.11 B50,2013-02-23 06:30:00,
2013-02-22 22:40:00,44.1,41.9,30.24,North,0,0.0,1.0,92,0.00,,,0.00,LWC V2.11 B50,2013-02-23 06:40:00,
2013-02-22 22:50:00,44.1,41.9,30.24,North,0,0.0,1.0,92,0.00,,,0.00,LWC V2.11 B50,2013-02-23 06:50:00,
2013-02-22 23:00:00,44.1,41.9,30.24,North,0,0.0,1.0,92,0.00,,,0.00,LWC V2.11 B50,2013-02-23 07:00:00,
2013-02-22 23:10:00,44.3,42.4,30.24,North,0,0.0,1.0,93,0.00,,,0.00,LWC V2.11 B50,2013-02-23 07:10:00,
2013-02-22 23:20:00,44.3,42.4,30.24,North,0,0.0,1.0,93,0.00,,,0.00,LWC V2.11 B50,2013-02-23 07:20:00,
2013-02-22 23:30:00,44.3,42.4,30.24,North,0,0.0,1.0,93,0.00,,,0.00,LWC V2.11 B50,2013-02-23 07:30:00,
2013-02-22 23:40:00,44.4,42.2,30.24,North,0,0.0,0.0,92,0.00,,,0.00,LWC V2.11 B50,2013-02-23 07:40:00,
2013-02-22 23:50:00,44.4,42.2,30.24,North,0,0.0,0.0,92,0.00,,,0.00,LWC V2.11 B50,2013-02-23 07:50:00,